sensor_id;sensor_type;location;lat;lon;timestamp;pressure;altitude;pressure_sealevel;temperature;humidity
38452;BME280;24231;52.514;13.438;2022-12-07T00:03:07;100818.05;;;4.22;72.52
38452;BME280;24231;52.514;13.438;2022-12-07T00:05:34;100819.03;;;3.64;71.85
38452;BME280;24231;52.514;13.438;2022-12-07T00:08:02;100816.55;;;3.92;72.14
38452;BME280;24231;52.514;13.438;2022-12-07T00:10:29;100811.10;;;3.36;75.08
38452;BME280;24231;52.514;13.438;2022-12-07T00:12:56;100809.35;;;3.09;77.33
38452;BME280;24231;52.514;13.438;2022-12-07T00:15:23;100808.12;;;4.53;71.36
38452;BME280;24231;52.514;13.438;2022-12-07T00:17:51;100802.59;;;2.88;77.89
38452;BME280;24231;52.514;13.438;2022-12-07T00:20:19;100802.06;;;3.73;74.25
38452;BME280;24231;52.514;13.438;2022-12-07T00:22:46;100803.72;;;2.53;78.95
38452;BME280;24231;52.514;13.438;2022-12-07T00:25:13;100807.71;;;4.30;71.69
38452;BME280;24231;52.514;13.438;2022-12-07T00:27:40;100799.94;;;4.26;71.06
38452;BME280;24231;52.514;13.438;2022-12-07T00:30:08;100800.21;;;3.41;73.36
38452;BME280;24231;52.514;13.438;2022-12-07T00:32:36;100800.65;;;3.64;72.75
38452;BME280;24231;52.514;13.438;2022-12-07T00:35:04;100795.56;;;4.52;68.22
38452;BME280;24231;52.514;13.438;2022-12-07T00:37:31;100794.42;;;4.22;69.46
38452;BME280;24231;52.514;13.438;2022-12-07T00:39:58;100794.43;;;3.87;70.18
38452;BME280;24231;52.514;13.438;2022-12-07T00:42:25;100788.62;;;4.20;68.76
38452;BME280;24231;52.514;13.438;2022-12-07T00:44:52;100785.75;;;4.19;67.69
38452;BME280;24231;52.514;13.438;2022-12-07T00:47:19;100782.38;;;3.34;71.23
38452;BME280;24231;52.514;13.438;2022-12-07T00:49:46;100780.84;;;4.45;67.26
38452;BME280;24231;52.514;13.438;2022-12-07T00:52:14;100777.62;;;4.58;65.73
38452;BME280;24231;52.514;13.438;2022-12-07T00:54:41;100781.68;;;4.48;65.94
38452;BME280;24231;52.514;13.438;2022-12-07T00:57:08;100770.90;;;4.94;63.87
38452;BME280;24231;52.514;13.438;2022-12-07T00:59:36;100779.92;;;3.56;68.99
38452;BME280;24231;52.514;13.438;2022-12-07T01:02:03;100778.42;;;4.46;66.72
38452;BME280;24231;52.514;13.438;2022-12-07T01:04:33;100779.05;;;3.86;69.04
38452;BME280;24231;52.514;13.438;2022-12-07T01:07:00;100772.04;;;4.33;66.06
38452;BME280;24231;52.514;13.438;2022-12-07T01:09:27;100767.34;;;4.66;64.40
38452;BME280;24231;52.514;13.438;2022-12-07T01:11:55;100766.40;;;4.68;64.68
38452;BME280;24231;52.514;13.438;2022-12-07T01:14:22;100769.35;;;2.69;71.44
38452;BME280;24231;52.514;13.438;2022-12-07T01:16:49;100765.57;;;4.39;64.50
38452;BME280;24231;52.514;13.438;2022-12-07T01:19:16;100760.78;;;4.51;64.71
38452;BME280;24231;52.514;13.438;2022-12-07T01:21:44;100761.10;;;3.62;67.56
38452;BME280;24231;52.514;13.438;2022-12-07T01:24:11;100755.93;;;4.29;64.32
38452;BME280;24231;52.514;13.438;2022-12-07T01:26:38;100760.50;;;3.81;64.94
38452;BME280;24231;52.514;13.438;2022-12-07T01:29:05;100754.17;;;4.47;63.41
38452;BME280;24231;52.514;13.438;2022-12-07T01:31:32;100753.26;;;4.45;63.20
38452;BME280;24231;52.514;13.438;2022-12-07T01:34:00;100753.18;;;4.69;62.24
38452;BME280;24231;52.514;13.438;2022-12-07T01:36:29;100751.01;;;5.06;61.11
38452;BME280;24231;52.514;13.438;2022-12-07T01:38:59;100745.82;;;4.84;61.50
38452;BME280;24231;52.514;13.438;2022-12-07T01:41:28;100749.12;;;3.63;65.67
38452;BME280;24231;52.514;13.438;2022-12-07T01:44:19;100749.56;;;2.97;67.42
38452;BME280;24231;52.514;13.438;2022-12-07T01:46:47;100751.25;;;3.40;65.53
38452;BME280;24231;52.514;13.438;2022-12-07T01:49:21;100743.28;;;4.47;63.18
38452;BME280;24231;52.514;13.438;2022-12-07T01:51:52;100735.40;;;4.47;62.26
38452;BME280;24231;52.514;13.438;2022-12-07T01:54:22;100731.45;;;4.81;60.67
38452;BME280;24231;52.514;13.438;2022-12-07T01:56:51;100727.87;;;5.13;59.34
38452;BME280;24231;52.514;13.438;2022-12-07T01:59:22;100732.00;;;3.25;66.07
38452;BME280;24231;52.514;13.438;2022-12-07T02:01:52;100720.18;;;4.89;60.53
38452;BME280;24231;52.514;13.438;2022-12-07T02:04:19;100727.44;;;3.56;65.26
38452;BME280;24231;52.514;13.438;2022-12-07T02:06:48;100718.12;;;4.36;62.33
38452;BME280;24231;52.514;13.438;2022-12-07T02:09:17;100714.85;;;4.97;59.40
38452;BME280;24231;52.514;13.438;2022-12-07T02:11:44;100716.65;;;5.07;59.37
38452;BME280;24231;52.514;13.438;2022-12-07T02:14:12;100715.21;;;4.87;60.16
38452;BME280;24231;52.514;13.438;2022-12-07T02:16:51;100713.42;;;5.07;59.29
38452;BME280;24231;52.514;13.438;2022-12-07T02:20:39;100720.74;;;3.42;64.81
38452;BME280;24231;52.514;13.438;2022-12-07T02:23:32;100720.17;;;2.67;67.98
38452;BME280;24231;52.514;13.438;2022-12-07T02:26:23;100713.84;;;4.00;63.22
38452;BME280;24231;52.514;13.438;2022-12-07T02:29:10;100714.87;;;3.02;66.69
38452;BME280;24231;52.514;13.438;2022-12-07T02:31:46;100714.96;;;3.81;64.55
38452;BME280;24231;52.514;13.438;2022-12-07T02:34:29;100708.38;;;2.93;67.70
38452;BME280;24231;52.514;13.438;2022-12-07T02:37:02;100701.75;;;2.95;67.14
38452;BME280;24231;52.514;13.438;2022-12-07T02:39:37;100697.96;;;2.46;69.86
38452;BME280;24231;52.514;13.438;2022-12-07T02:42:11;100694.37;;;2.25;70.84
38452;BME280;24231;52.514;13.438;2022-12-07T02:44:41;100695.73;;;1.89;73.06
38452;BME280;24231;52.514;13.438;2022-12-07T02:47:12;100691.39;;;2.83;70.46
38452;BME280;24231;52.514;13.438;2022-12-07T02:49:42;100685.11;;;2.72;70.00
38452;BME280;24231;52.514;13.438;2022-12-07T02:52:10;100687.44;;;1.83;73.85
38452;BME280;24231;52.514;13.438;2022-12-07T02:54:37;100684.53;;;2.12;72.52
38452;BME280;24231;52.514;13.438;2022-12-07T02:57:14;100680.41;;;2.80;71.69
38452;BME280;24231;52.514;13.438;2022-12-07T02:59:55;100677.04;;;2.68;70.58
38452;BME280;24231;52.514;13.438;2022-12-07T03:02:35;100679.10;;;2.92;70.50
38452;BME280;24231;52.514;13.438;2022-12-07T03:05:17;100678.79;;;3.04;70.03
38452;BME280;24231;52.514;13.438;2022-12-07T03:07:51;100677.99;;;2.12;74.01
38452;BME280;24231;52.514;13.438;2022-12-07T03:10:27;100672.68;;;2.82;71.91
38452;BME280;24231;52.514;13.438;2022-12-07T03:13:03;100666.28;;;2.00;73.95
38452;BME280;24231;52.514;13.438;2022-12-07T03:15:35;100661.63;;;2.39;73.84
38452;BME280;24231;52.514;13.438;2022-12-07T03:18:08;100654.91;;;3.20;69.99
38452;BME280;24231;52.514;13.438;2022-12-07T03:20:37;100647.93;;;3.96;66.93
38452;BME280;24231;52.514;13.438;2022-12-07T03:23:08;100641.72;;;3.83;66.83
38452;BME280;24231;52.514;13.438;2022-12-07T03:25:40;100647.03;;;3.41;67.89
38452;BME280;24231;52.514;13.438;2022-12-07T03:28:10;100639.15;;;4.70;64.41
38452;BME280;24231;52.514;13.438;2022-12-07T03:30:43;100635.77;;;4.41;64.29
38452;BME280;24231;52.514;13.438;2022-12-07T03:33:17;100631.38;;;4.07;65.83
38452;BME280;24231;52.514;13.438;2022-12-07T03:35:52;100624.10;;;4.13;65.70
38452;BME280;24231;52.514;13.438;2022-12-07T03:38:25;100616.15;;;4.15;66.80
38452;BME280;24231;52.514;13.438;2022-12-07T03:40:58;100608.50;;;4.74;63.86
38452;BME280;24231;52.514;13.438;2022-12-07T03:43:28;100602.41;;;4.92;63.51
38452;BME280;24231;52.514;13.438;2022-12-07T03:46:03;100600.25;;;5.18;62.53
38452;BME280;24231;52.514;13.438;2022-12-07T03:48:36;100594.14;;;3.46;67.77
38452;BME280;24231;52.514;13.438;2022-12-07T03:51:11;100588.33;;;3.57;67.52
38452;BME280;24231;52.514;13.438;2022-12-07T03:53:44;100582.54;;;4.79;63.84
38452;BME280;24231;52.514;13.438;2022-12-07T03:56:14;100583.42;;;3.10;68.18
38452;BME280;24231;52.514;13.438;2022-12-07T03:58:42;100574.83;;;5.26;62.25
38452;BME280;24231;52.514;13.438;2022-12-07T04:01:10;100572.01;;;4.35;65.37
38452;BME280;24231;52.514;13.438;2022-12-07T04:03:37;100570.24;;;3.43;69.51
38452;BME280;24231;52.514;13.438;2022-12-07T04:06:05;100574.15;;;2.50;72.97
38452;BME280;24231;52.514;13.438;2022-12-07T04:08:33;100567.44;;;3.57;69.43
38452;BME280;24231;52.514;13.438;2022-12-07T04:11:00;100564.10;;;3.95;67.96
38452;BME280;24231;52.514;13.438;2022-12-07T04:13:27;100573.67;;;2.88;72.73
38452;BME280;24231;52.514;13.438;2022-12-07T04:15:54;100563.54;;;3.53;70.47
38452;BME280;24231;52.514;13.438;2022-12-07T04:18:22;100566.75;;;2.75;74.12
38452;BME280;24231;52.514;13.438;2022-12-07T04:20:49;100560.36;;;3.48;71.74
38452;BME280;24231;52.514;13.438;2022-12-07T04:23:16;100563.72;;;2.63;73.80
38452;BME280;24231;52.514;13.438;2022-12-07T04:25:44;100553.77;;;3.32;72.86
38452;BME280;24231;52.514;13.438;2022-12-07T04:28:11;100557.66;;;2.87;74.48
38452;BME280;24231;52.514;13.438;2022-12-07T04:30:39;100553.45;;;2.83;73.89
38452;BME280;24231;52.514;13.438;2022-12-07T04:33:05;100547.25;;;3.24;72.89
38452;BME280;24231;52.514;13.438;2022-12-07T04:35:33;100549.50;;;3.13;74.67
38452;BME280;24231;52.514;13.438;2022-12-07T04:38:00;100540.66;;;1.57;81.16
38452;BME280;24231;52.514;13.438;2022-12-07T04:40:27;100541.23;;;1.91;79.26
38452;BME280;24231;52.514;13.438;2022-12-07T04:42:55;100537.26;;;2.36;77.93
38452;BME280;24231;52.514;13.438;2022-12-07T04:45:22;100537.36;;;2.41;78.44
38452;BME280;24231;52.514;13.438;2022-12-07T04:47:49;100533.12;;;2.48;76.95
38452;BME280;24231;52.514;13.438;2022-12-07T04:50:17;100533.55;;;2.96;76.70
38452;BME280;24231;52.514;13.438;2022-12-07T04:52:44;100532.84;;;2.86;77.45
38452;BME280;24231;52.514;13.438;2022-12-07T04:55:11;100526.71;;;2.07;79.64
38452;BME280;24231;52.514;13.438;2022-12-07T04:57:39;100527.73;;;2.55;79.30
38452;BME280;24231;52.514;13.438;2022-12-07T05:00:08;100520.30;;;2.66;78.05
38452;BME280;24231;52.514;13.438;2022-12-07T05:02:36;100519.97;;;2.05;78.85
38452;BME280;24231;52.514;13.438;2022-12-07T05:05:04;100519.30;;;2.23;80.56
38452;BME280;24231;52.514;13.438;2022-12-07T05:07:31;100519.08;;;2.67;78.00
38452;BME280;24231;52.514;13.438;2022-12-07T05:09:59;100520.84;;;2.63;79.10
38452;BME280;24231;52.514;13.438;2022-12-07T05:12:26;100519.48;;;2.46;80.87
38452;BME280;24231;52.514;13.438;2022-12-07T05:14:53;100517.91;;;2.08;80.95
38452;BME280;24231;52.514;13.438;2022-12-07T05:17:20;100513.59;;;1.50;84.42
38452;BME280;24231;52.514;13.438;2022-12-07T05:20:00;100513.26;;;2.74;80.61
38452;BME280;24231;52.514;13.438;2022-12-07T05:23:14;100513.10;;;2.71;79.33
38452;BME280;24231;52.514;13.438;2022-12-07T05:25:42;100499.18;;;3.29;74.81
38452;BME280;24231;52.514;13.438;2022-12-07T05:28:09;100501.20;;;3.57;74.77
38452;BME280;24231;52.514;13.438;2022-12-07T05:30:37;100499.47;;;3.17;76.85
38452;BME280;24231;52.514;13.438;2022-12-07T05:33:05;100504.73;;;2.32;81.61
38452;BME280;24231;52.514;13.438;2022-12-07T05:35:32;100499.33;;;2.30;81.90
38452;BME280;24231;52.514;13.438;2022-12-07T05:37:59;100497.99;;;2.39;82.67
38452;BME280;24231;52.514;13.438;2022-12-07T05:40:26;100492.79;;;2.08;83.31
38452;BME280;24231;52.514;13.438;2022-12-07T05:42:54;100494.73;;;1.77;84.85
38452;BME280;24231;52.514;13.438;2022-12-07T05:45:21;100490.70;;;2.08;84.49
38452;BME280;24231;52.514;13.438;2022-12-07T05:47:48;100491.37;;;2.57;82.96
38452;BME280;24231;52.514;13.438;2022-12-07T05:50:15;100480.09;;;3.46;78.83
38452;BME280;24231;52.514;13.438;2022-12-07T05:52:42;100480.52;;;2.91;81.40
38452;BME280;24231;52.514;13.438;2022-12-07T05:55:09;100474.49;;;3.17;78.80
38452;BME280;24231;52.514;13.438;2022-12-07T05:57:36;100472.48;;;3.85;77.00
38452;BME280;24231;52.514;13.438;2022-12-07T06:00:05;100478.44;;;2.41;80.99
38452;BME280;24231;52.514;13.438;2022-12-07T06:02:33;100474.55;;;2.92;82.32
38452;BME280;24231;52.514;13.438;2022-12-07T06:04:59;100464.76;;;3.39;79.94
38452;BME280;24231;52.514;13.438;2022-12-07T06:07:26;100464.71;;;2.48;84.28
38452;BME280;24231;52.514;13.438;2022-12-07T06:09:53;100455.36;;;2.81;82.67
38452;BME280;24231;52.514;13.438;2022-12-07T06:12:21;100449.88;;;3.32;80.16
38452;BME280;24231;52.514;13.438;2022-12-07T06:14:48;100442.92;;;2.86;82.10
38452;BME280;24231;52.514;13.438;2022-12-07T06:17:15;100441.72;;;3.12;82.51
38452;BME280;24231;52.514;13.438;2022-12-07T06:19:43;100443.03;;;3.11;83.08
38452;BME280;24231;52.514;13.438;2022-12-07T06:22:11;100437.01;;;2.87;84.85
38452;BME280;24231;52.514;13.438;2022-12-07T06:24:39;100445.07;;;2.25;86.37
38452;BME280;24231;52.514;13.438;2022-12-07T06:27:06;100441.18;;;2.25;86.60
38452;BME280;24231;52.514;13.438;2022-12-07T06:29:34;100441.44;;;2.12;87.46
38452;BME280;24231;52.514;13.438;2022-12-07T06:32:01;100439.96;;;2.21;87.19
38452;BME280;24231;52.514;13.438;2022-12-07T06:34:29;100444.89;;;2.26;89.01
38452;BME280;24231;52.514;13.438;2022-12-07T06:36:57;100433.56;;;2.99;86.34
38452;BME280;24231;52.514;13.438;2022-12-07T06:39:27;100436.68;;;1.82;88.23
38452;BME280;24231;52.514;13.438;2022-12-07T06:41:55;100437.77;;;2.11;86.89
38452;BME280;24231;52.514;13.438;2022-12-07T06:44:24;100440.51;;;3.42;81.25
38452;BME280;24231;52.514;13.438;2022-12-07T06:46:51;100436.32;;;3.27;81.16
38452;BME280;24231;52.514;13.438;2022-12-07T06:49:19;100440.38;;;3.23;82.28
38452;BME280;24231;52.514;13.438;2022-12-07T06:51:46;100441.74;;;3.34;82.41
38452;BME280;24231;52.514;13.438;2022-12-07T06:54:15;100438.99;;;3.53;81.64
38452;BME280;24231;52.514;13.438;2022-12-07T06:56:42;100438.87;;;3.13;81.96
38452;BME280;24231;52.514;13.438;2022-12-07T06:59:10;100434.26;;;3.18;82.84
38452;BME280;24231;52.514;13.438;2022-12-07T07:01:37;100433.00;;;3.85;80.06
38452;BME280;24231;52.514;13.438;2022-12-07T07:04:04;100433.75;;;4.08;78.52
38452;BME280;24231;52.514;13.438;2022-12-07T07:06:31;100428.08;;;3.41;81.49
38452;BME280;24231;52.514;13.438;2022-12-07T07:08:59;100427.10;;;3.61;78.54
38452;BME280;24231;52.514;13.438;2022-12-07T07:11:26;100427.79;;;4.29;78.75
38452;BME280;24231;52.514;13.438;2022-12-07T07:13:53;100420.71;;;4.42;75.80
38452;BME280;24231;52.514;13.438;2022-12-07T07:16:20;100424.01;;;4.44;76.12
38452;BME280;24231;52.514;13.438;2022-12-07T07:18:47;100426.90;;;3.84;78.01
38452;BME280;24231;52.514;13.438;2022-12-07T07:21:14;100430.81;;;3.17;82.08
38452;BME280;24231;52.514;13.438;2022-12-07T07:23:42;100434.99;;;3.89;81.32
38452;BME280;24231;52.514;13.438;2022-12-07T07:26:09;100431.55;;;3.28;84.00
38452;BME280;24231;52.514;13.438;2022-12-07T07:28:36;100437.32;;;3.25;84.43
38452;BME280;24231;52.514;13.438;2022-12-07T07:31:04;100432.97;;;3.13;85.62
38452;BME280;24231;52.514;13.438;2022-12-07T07:33:31;100431.14;;;4.22;80.26
38452;BME280;24231;52.514;13.438;2022-12-07T07:35:58;100428.31;;;3.79;80.38
38452;BME280;24231;52.514;13.438;2022-12-07T07:38:26;100421.16;;;2.72;84.43
38452;BME280;24231;52.514;13.438;2022-12-07T07:40:53;100418.78;;;4.34;79.34
38452;BME280;24231;52.514;13.438;2022-12-07T07:43:20;100413.43;;;4.35;78.67
38452;BME280;24231;52.514;13.438;2022-12-07T07:45:47;100421.45;;;4.04;79.32
38452;BME280;24231;52.514;13.438;2022-12-07T07:48:14;100423.42;;;4.43;77.25
38452;BME280;24231;52.514;13.438;2022-12-07T07:50:42;100426.47;;;4.53;76.43
38452;BME280;24231;52.514;13.438;2022-12-07T07:53:09;100424.96;;;4.51;76.86
38452;BME280;24231;52.514;13.438;2022-12-07T07:55:36;100423.37;;;4.21;77.61
38452;BME280;24231;52.514;13.438;2022-12-07T07:58:03;100425.82;;;3.33;80.43
38452;BME280;24231;52.514;13.438;2022-12-07T08:00:30;100430.41;;;3.04;81.26
38452;BME280;24231;52.514;13.438;2022-12-07T08:02:58;100429.82;;;4.25;77.86
38452;BME280;24231;52.514;13.438;2022-12-07T08:05:24;100432.27;;;4.09;76.96
38452;BME280;24231;52.514;13.438;2022-12-07T08:07:52;100433.56;;;3.47;80.38
38452;BME280;24231;52.514;13.438;2022-12-07T08:10:19;100433.61;;;3.23;82.75
38452;BME280;24231;52.514;13.438;2022-12-07T08:12:47;100430.10;;;3.65;79.47
38452;BME280;24231;52.514;13.438;2022-12-07T08:15:14;100438.33;;;3.81;79.00
38452;BME280;24231;52.514;13.438;2022-12-07T08:17:41;100437.67;;;3.84;79.20
38452;BME280;24231;52.514;13.438;2022-12-07T08:20:08;100435.76;;;4.04;78.14
38452;BME280;24231;52.514;13.438;2022-12-07T08:22:35;100439.31;;;3.65;77.43
38452;BME280;24231;52.514;13.438;2022-12-07T08:25:03;100437.61;;;4.28;75.64
38452;BME280;24231;52.514;13.438;2022-12-07T08:27:31;100436.25;;;4.62;74.46
38452;BME280;24231;52.514;13.438;2022-12-07T08:29:58;100443.88;;;3.94;75.97
38452;BME280;24231;52.514;13.438;2022-12-07T08:32:25;100445.84;;;3.37;79.85
38452;BME280;24231;52.514;13.438;2022-12-07T08:34:53;100444.85;;;3.66;79.01
38452;BME280;24231;52.514;13.438;2022-12-07T08:37:20;100447.90;;;4.25;75.43
38452;BME280;24231;52.514;13.438;2022-12-07T08:39:47;100444.62;;;4.92;72.11
38452;BME280;24231;52.514;13.438;2022-12-07T08:42:15;100445.94;;;4.50;74.15
38452;BME280;24231;52.514;13.438;2022-12-07T08:44:42;100450.52;;;3.92;75.09
38452;BME280;24231;52.514;13.438;2022-12-07T08:47:10;100451.15;;;4.04;74.35
38452;BME280;24231;52.514;13.438;2022-12-07T08:49:40;100446.82;;;3.68;73.94
38452;BME280;24231;52.514;13.438;2022-12-07T08:52:08;100452.17;;;3.71;73.98
38452;BME280;24231;52.514;13.438;2022-12-07T08:54:38;100455.69;;;4.48;70.80
38452;BME280;24231;52.514;13.438;2022-12-07T08:57:06;100452.03;;;3.42;73.38
38452;BME280;24231;52.514;13.438;2022-12-07T08:59:35;100453.89;;;3.71;72.15
38452;BME280;24231;52.514;13.438;2022-12-07T09:02:03;100459.52;;;3.05;74.61
38452;BME280;24231;52.514;13.438;2022-12-07T09:04:30;100467.43;;;3.09;74.34
38452;BME280;24231;52.514;13.438;2022-12-07T09:06:58;100465.87;;;3.83;70.43
38452;BME280;24231;52.514;13.438;2022-12-07T09:09:25;100465.57;;;3.17;71.79
38452;BME280;24231;52.514;13.438;2022-12-07T09:11:53;100470.23;;;3.37;71.36
38452;BME280;24231;52.514;13.438;2022-12-07T09:14:20;100466.54;;;3.63;70.41
38452;BME280;24231;52.514;13.438;2022-12-07T09:16:48;100469.63;;;3.85;68.51
38452;BME280;24231;52.514;13.438;2022-12-07T09:19:14;100481.52;;;3.44;70.10
38452;BME280;24231;52.514;13.438;2022-12-07T09:21:42;100477.11;;;3.69;68.52
38452;BME280;24231;52.514;13.438;2022-12-07T09:24:11;100488.03;;;3.86;67.54
38452;BME280;24231;52.514;13.438;2022-12-07T09:26:38;100479.71;;;3.61;68.37
38452;BME280;24231;52.514;13.438;2022-12-07T09:29:06;100479.24;;;3.29;67.81
38452;BME280;24231;52.514;13.438;2022-12-07T09:31:36;100482.57;;;3.44;68.17
38452;BME280;24231;52.514;13.438;2022-12-07T09:34:03;100483.38;;;3.05;69.26
38452;BME280;24231;52.514;13.438;2022-12-07T09:36:30;100484.92;;;3.43;68.59
38452;BME280;24231;52.514;13.438;2022-12-07T09:38:58;100494.91;;;4.13;65.38
38452;BME280;24231;52.514;13.438;2022-12-07T09:41:27;100496.58;;;3.56;67.47
38452;BME280;24231;52.514;13.438;2022-12-07T09:44:03;100486.49;;;3.63;67.39
38452;BME280;24231;52.514;13.438;2022-12-07T09:46:35;100498.80;;;3.74;67.74
38452;BME280;24231;52.514;13.438;2022-12-07T09:49:03;100500.41;;;3.77;67.20
38452;BME280;24231;52.514;13.438;2022-12-07T09:51:31;100490.69;;;3.23;68.48
38452;BME280;24231;52.514;13.438;2022-12-07T09:53:59;100504.17;;;3.78;66.22
38452;BME280;24231;52.514;13.438;2022-12-07T09:56:29;100499.53;;;3.13;68.67
38452;BME280;24231;52.514;13.438;2022-12-07T09:59:00;100500.94;;;2.81;68.16
38452;BME280;24231;52.514;13.438;2022-12-07T10:01:30;100505.13;;;3.05;68.94
38452;BME280;24231;52.514;13.438;2022-12-07T10:04:09;100503.89;;;3.32;67.85
38452;BME280;24231;52.514;13.438;2022-12-07T10:06:38;100505.74;;;3.10;68.13
38452;BME280;24231;52.514;13.438;2022-12-07T10:09:10;100508.83;;;3.22;67.41
38452;BME280;24231;52.514;13.438;2022-12-07T10:11:59;100505.71;;;3.75;65.99
38452;BME280;24231;52.514;13.438;2022-12-07T10:14:28;100505.95;;;3.77;65.91
38452;BME280;24231;52.514;13.438;2022-12-07T10:16:56;100494.30;;;3.76;65.39
38452;BME280;24231;52.514;13.438;2022-12-07T10:19:26;100500.57;;;2.84;67.83
38452;BME280;24231;52.514;13.438;2022-12-07T10:22:04;100505.60;;;3.77;65.31
38452;BME280;24231;52.514;13.438;2022-12-07T10:24:32;100506.74;;;3.31;66.89
38452;BME280;24231;52.514;13.438;2022-12-07T10:26:59;100513.62;;;2.86;67.70
38452;BME280;24231;52.514;13.438;2022-12-07T10:29:29;100504.70;;;3.17;66.77
38452;BME280;24231;52.514;13.438;2022-12-07T10:31:59;100500.99;;;3.39;65.53
38452;BME280;24231;52.514;13.438;2022-12-07T10:34:28;100495.85;;;4.70;61.39
38452;BME280;24231;52.514;13.438;2022-12-07T10:37:15;100496.30;;;4.33;62.13
38452;BME280;24231;52.514;13.438;2022-12-07T10:39:44;100501.28;;;4.05;64.35
38452;BME280;24231;52.514;13.438;2022-12-07T10:42:18;100505.37;;;3.26;67.05
38452;BME280;24231;52.514;13.438;2022-12-07T10:44:46;100503.20;;;4.65;63.41
38452;BME280;24231;52.514;13.438;2022-12-07T10:47:23;100504.98;;;3.90;65.81
38452;BME280;24231;52.514;13.438;2022-12-07T10:50:04;100499.87;;;3.36;67.42
38452;BME280;24231;52.514;13.438;2022-12-07T10:52:45;100499.23;;;4.40;63.64
38452;BME280;24231;52.514;13.438;2022-12-07T10:55:22;100502.31;;;4.17;64.62
38452;BME280;24231;52.514;13.438;2022-12-07T10:58:07;100496.95;;;3.27;67.69
38452;BME280;24231;52.514;13.438;2022-12-07T11:00:46;100501.38;;;4.29;64.72
38452;BME280;24231;52.514;13.438;2022-12-07T11:03:37;100489.99;;;4.04;65.29
38452;BME280;24231;52.514;13.438;2022-12-07T11:06:16;100494.18;;;3.91;65.93
38452;BME280;24231;52.514;13.438;2022-12-07T11:09:00;100495.52;;;4.45;64.13
38452;BME280;24231;52.514;13.438;2022-12-07T11:11:34;100491.85;;;4.15;65.71
38452;BME280;24231;52.514;13.438;2022-12-07T11:14:10;100491.09;;;4.29;65.73
38452;BME280;24231;52.514;13.438;2022-12-07T11:16:51;100499.19;;;4.35;65.82
38452;BME280;24231;52.514;13.438;2022-12-07T11:19:32;100493.90;;;4.08;66.89
38452;BME280;24231;52.514;13.438;2022-12-07T11:22:06;100491.45;;;4.09;66.71
38452;BME280;24231;52.514;13.438;2022-12-07T11:24:42;100487.58;;;3.88;67.91
38452;BME280;24231;52.514;13.438;2022-12-07T11:27:22;100482.17;;;4.25;67.01
38452;BME280;24231;52.514;13.438;2022-12-07T11:29:59;100483.62;;;4.03;67.93
38452;BME280;24231;52.514;13.438;2022-12-07T11:32:42;100477.88;;;4.40;66.37
38452;BME280;24231;52.514;13.438;2022-12-07T11:35:20;100484.21;;;4.24;67.05
38452;BME280;24231;52.514;13.438;2022-12-07T11:37:51;100473.79;;;4.17;66.84
38452;BME280;24231;52.514;13.438;2022-12-07T11:40:27;100475.79;;;4.50;65.50
38452;BME280;24231;52.514;13.438;2022-12-07T11:42:59;100474.02;;;3.64;68.20
38452;BME280;24231;52.514;13.438;2022-12-07T11:45:31;100473.67;;;3.82;67.99
38452;BME280;24231;52.514;13.438;2022-12-07T11:48:01;100480.27;;;3.84;68.01
38452;BME280;24231;52.514;13.438;2022-12-07T11:50:34;100474.68;;;3.67;67.73
38452;BME280;24231;52.514;13.438;2022-12-07T11:53:09;100475.21;;;4.20;66.15
38452;BME280;24231;52.514;13.438;2022-12-07T11:55:43;100476.94;;;4.30;65.56
38452;BME280;24231;52.514;13.438;2022-12-07T11:58:22;100468.19;;;4.57;65.13
38452;BME280;24231;52.514;13.438;2022-12-07T12:00:53;100468.62;;;4.52;66.03
38452;BME280;24231;52.514;13.438;2022-12-07T12:03:28;100473.12;;;4.35;66.36
38452;BME280;24231;52.514;13.438;2022-12-07T12:05:58;100468.10;;;5.42;62.56
38452;BME280;24231;52.514;13.438;2022-12-07T12:08:29;100464.83;;;4.19;66.93
38452;BME280;24231;52.514;13.438;2022-12-07T12:11:03;100464.76;;;4.64;64.43
38452;BME280;24231;52.514;13.438;2022-12-07T12:14:05;100457.78;;;5.16;63.27
38452;BME280;24231;52.514;13.438;2022-12-07T12:16:52;100455.24;;;4.49;65.37
38452;BME280;24231;52.514;13.438;2022-12-07T12:19:33;100451.19;;;4.75;65.01
38452;BME280;24231;52.514;13.438;2022-12-07T12:22:07;100449.92;;;5.54;62.40
38452;BME280;24231;52.514;13.438;2022-12-07T12:24:38;100450.47;;;5.71;62.00
38452;BME280;24231;52.514;13.438;2022-12-07T12:27:08;100445.78;;;5.59;61.83
38452;BME280;24231;52.514;13.438;2022-12-07T12:29:39;100446.43;;;5.38;62.72
38452;BME280;24231;52.514;13.438;2022-12-07T12:32:14;100444.26;;;4.12;67.83
38452;BME280;24231;52.514;13.438;2022-12-07T12:35:00;100448.46;;;4.71;66.05
38452;BME280;24231;52.514;13.438;2022-12-07T12:37:44;100451.81;;;4.72;66.17
38452;BME280;24231;52.514;13.438;2022-12-07T12:40:39;100444.79;;;5.06;64.51
38452;BME280;24231;52.514;13.438;2022-12-07T12:43:40;100447.74;;;4.63;62.97
38452;BME280;24231;52.514;13.438;2022-12-07T12:48:29;100446.23;;;4.15;67.87
38452;BME280;24231;52.514;13.438;2022-12-07T12:51:36;100444.22;;;4.73;65.55
38452;BME280;24231;52.514;13.438;2022-12-07T12:54:04;100445.79;;;5.56;62.13
38452;BME280;24231;52.514;13.438;2022-12-07T12:56:41;100443.95;;;4.40;66.46
38452;BME280;24231;52.514;13.438;2022-12-07T12:59:27;100441.70;;;4.27;66.57
38452;BME280;24231;52.514;13.438;2022-12-07T13:02:20;100442.48;;;5.13;64.59
38452;BME280;24231;52.514;13.438;2022-12-07T13:04:53;100442.90;;;5.54;63.09
38452;BME280;24231;52.514;13.438;2022-12-07T13:08:26;100441.17;;;4.27;67.05
38452;BME280;24231;52.514;13.438;2022-12-07T13:10:53;100434.84;;;5.02;65.20
38452;BME280;24231;52.514;13.438;2022-12-07T13:13:37;100440.66;;;5.03;64.83
38452;BME280;24231;52.514;13.438;2022-12-07T13:16:39;100441.22;;;5.55;63.03